This is the latest recevied weather packets stored in our database for station/object SQ6PCH-10. If no packets are shown the sender has not sent any weather packets the latest 10 day(s).
| Time | Temp. | Humidity | Pressure | Rain* | Wind** | Luminosity | Snow |
|---|---|---|---|---|---|---|---|
| 1777579633 | 11.67° C | 45% | 1013.5 hPa | - | - | - | - |
| 1777579033 | 11.67° C | 45% | 1013.5 hPa | - | - | - | - |
| 1777578432 | 11.67° C | 44% | 1013.5 hPa | - | - | - | - |
| 1777577832 | 11.67° C | 44% | 1013.6 hPa | - | - | - | - |
| 1777577232 | 11.67° C | 43% | 1013.5 hPa | - | - | - | - |
| 1777576632 | 11.67° C | 42% | 1013.5 hPa | - | - | - | - |
| 1777576032 | 11.11° C | 42% | 1013.4 hPa | - | - | - | - |
| 1777575431 | 11.11° C | 42% | 1013.4 hPa | - | - | - | - |
| 1777574830 | 11.11° C | 43% | 1013.3 hPa | - | - | - | - |
| 1777574230 | 11.11° C | 43% | 1013.3 hPa | - | - | - | - |
| 1777573630 | 11.11° C | 42% | 1013.4 hPa | - | - | - | - |
| 1777573031 | 11.67° C | 40% | 1013.3 hPa | - | - | - | - |
| 1777572430 | 12.22° C | 39% | 1013.3 hPa | - | - | - | - |
| 1777571830 | 12.78° C | 37% | 1013.3 hPa | - | - | - | - |
| 1777571229 | 13.33° C | 35% | 1013.2 hPa | - | - | - | - |
| 1777570630 | 14.44° C | 32% | 1013.1 hPa | - | - | - | - |
| 1777570029 | 15.56° C | 30% | 1013.1 hPa | - | - | - | - |
| 1777569429 | 16.11° C | 29% | 1013.2 hPa | - | - | - | - |
| 1777568940 | 15° C | 31% | 1013.2 hPa | - | - | - | - |
| 1777568830 | 15° C | 31% | 1013.2 hPa | - | - | - | - |
| 1777568274 | 16.11° C | 29% | 1013.4 hPa | - | - | - | - |
| 1777568230 | 16.11° C | 29% | 1013.4 hPa | - | - | - | - |
| 1777567629 | 16.67° C | 27% | 1013.4 hPa | - | - | - | - |
| 1777567029 | 17.78° C | 26% | 1013.4 hPa | - | - | - | - |
| 1777566428 | 17.22° C | 27% | 1013.5 hPa | - | - | - | - |
* Rain since midnight (hover to see other rain measurements)
** Current wind speed in m/s (hover to see current wind gust speed)